Latest Weather Observations for Edinburgh

IDS60801

Issued at 4:51 pm CST Saturday 22 September 2018 (issued every 10 minutes, with the page automatically refreshed every 10 minutes)

About weather observations | Map of weather stations | Latest weather observations for SA | Other Formats
Station Details ID: 023083 Name: EDINBURGH RAAF Lat: -34.71 Lon: 138.62 Height: 16.54 m
Data from the previous 72 hours. | See also: Recent months at Edinburgh
Date/Time
CST
Temp
°C
App
Temp
°C
Dew
Point
°C
Rel
Hum
%
Delta-T
°C
Wind Press
QNH
hPa
Press
MSL
hPa
Rain since
9am
mm
Dir  Spd
km/h
Gust
km/h
Spd
kts
Gust
kts
22/04:30pm 20.4 15.2 8.7 47 6.1 SSW 26 32 14 17 1026.6 1026.6 0.0
22/04:00pm 21.6 17.5 8.8 44 6.8 SSW 20 30 11 16 1026.4 1026.4 0.0
22/03:30pm 22.4 18.1 7.8 39 7.6 SW 20 28 11 15 1026.3 1026.3 0.0
22/03:00pm 22.6 17.5 6.0 34 8.4 SSW 22 32 12 17 1026.5 1026.5 0.0
22/02:30pm 22.4 18.4 8.9 42 7.2 SW 20 28 11 15 1026.6 1026.6 0.0
22/02:00pm 22.0 17.7 7.8 40 7.4 SSW 20 28 11 15 1026.9 1026.9 0.0
22/01:30pm 22.0 17.8 8.2 41 7.2 SW 20 28 11 15 1027.0 1027.0 0.0
22/01:00pm 21.5 17.6 7.3 40 7.3 SW 17 22 9 12 1027.3 1027.3 0.0
22/12:30pm 21.6 17.5 6.3 37 7.7 SW 17 22 9 12 1027.6 1027.6 0.0
22/12:00pm 21.6 18.7 8.1 42 7.0 WSW 13 19 7 10 1027.7 1027.7 0.0
22/11:30am 20.4 17.5 6.7 41 6.9 WSW 11 17 6 9 1028.0 1028.0 0.0
22/11:00am 21.0 18.3 8.9 46 6.4 WSW 13 19 7 10 1028.1 1028.1 0.0
22/10:30am 20.1 17.6 8.1 46 6.2 W 11 17 6 9 1028.2 1028.2 0.0
22/10:00am 18.8 16.1 7.3 47 5.8 WNW 11 19 6 10 1028.5 1028.5 0.0
22/09:30am 18.1 16.2 7.5 50 5.3 WNW 7 11 4 6 1028.5 1028.5 0.0
22/09:00am 16.7 15.1 7.9 56 4.4 NNW 6 11 3 6 1028.7 1028.7 0.2
22/08:30am 15.9 15.5 8.4 61 3.8 CALM 0 6 0 3 1028.4 1028.4 0.2
22/08:00am 13.3 12.7 8.8 74 2.3 SSE 2 6 1 3 1028.0 1028.0 0.2
22/07:30am 11.2 9.6 8.1 81 1.5 S 6 6 3 3 1027.9 1027.9 0.2
22/07:00am 9.6 7.8 7.2 85 1.1 SSE 6 7 3 4 1027.7 1027.7 0.2
22/06:30am 7.7 6.3 5.7 87 0.9 NNW 2 9 1 5 1027.0 1027.0 0.2
22/06:00am 8.1 7.2 6.1 87 0.9 CALM 0 0 0 0 1026.6 1026.6 0.2
22/05:30am 8.5 7.7 6.3 86 1.0 CALM 0 0 0 0 1026.4 1026.4 0.2
22/05:00am 9.3 7.4 6.7 84 1.2 NE 6 7 3 4 1026.1 1026.1 0.2
22/04:30am 8.9 6.4 6.7 86 1.0 NE 9 15 5 8 1025.8 1025.8 0.2
22/04:00am 9.0 5.4 6.6 85 1.1 NE 15 17 8 9 1025.7 1025.7 0.2
22/03:30am 9.1 6.2 6.7 85 1.1 ENE 11 13 6 7 1025.8 1025.8 0.2
22/03:00am 8.9 6.5 6.9 87 0.9 NE 9 11 5 6 1026.0 1026.0 0.2
22/02:30am 8.4 5.2 6.9 90 0.7 NE 13 15 7 8 1026.1 1026.1 0.2
22/02:00am 8.7 5.5 7.0 89 0.8 NE 13 13 7 7 1026.5 1026.5 0.2
22/01:30am 9.0 7.1 7.5 90 0.7 NE 7 9 4 5 1026.8 1026.8 0.2
22/01:00am 9.1 8.4 7.1 87 0.9 CALM 0 0 0 0 1026.8 1026.8 0.2
22/12:30am 10.8 9.1 8.4 85 1.2 E 7 9 4 5 1027.1 1027.1 0.2
22/12:00am 10.2 9.7 8.0 86 1.1 CALM 0 0 0 0 1027.4 1027.4 0.2
 
Date/Time
CST
Temp
°C
App
Temp
°C
Dew
Point
°C
Rel
Hum
%
Delta-T
°C
Wind Press
QNH
hPa
Press
MSL
hPa
Rain since
9am
mm
Dir  Spd
km/h
Gust
km/h
Spd
kts
Gust
kts
21/11:30pm 10.3 9.8 7.9 85 1.2 CALM 0 0 0 0 1027.5 1027.5 0.2
21/11:00pm 10.5 10.0 7.7 83 1.3 CALM 0 6 0 3 1027.5 1027.5 0.2
21/10:30pm 11.4 10.7 8.4 82 1.5 S 2 6 1 3 1027.5 1027.5 0.2
21/10:00pm 11.6 11.0 8.8 83 1.4 SW 2 6 1 3 1027.6 1027.6 0.2
21/09:30pm 12.5 11.9 8.8 78 1.8 NE 2 6 1 3 1027.5 1027.5 0.2
21/09:00pm 11.9 9.9 8.7 81 1.6 NE 9 13 5 7 1027.2 1027.2 0.2
21/08:30pm 13.2 11.3 8.9 75 2.2 NE 9 9 5 5 1027.2 1027.2 0.2
21/08:00pm 15.6 14.9 8.4 62 3.6 SE 2 7 1 4 1027.0 1027.0 0.2
21/07:30pm 16.3 14.6 8.5 60 4.0 SSE 7 11 4 6 1026.7 1026.7 0.2
21/07:00pm 16.5 14.6 9.0 61 3.9 SSE 9 9 5 5 1026.4 1026.4 0.2
21/06:30pm 16.8 15.3 9.2 61 3.9 SSW 7 9 4 5 1026.2 1026.2 0.2
21/06:00pm 17.4 15.6 9.3 59 4.2 SW 9 11 5 6 1026.2 1026.2 0.2
21/05:30pm 18.9 17.0 9.1 53 5.1 SW 9 11 5 6 1026.0 1026.0 0.2
21/05:00pm 18.9 16.5 8.6 51 5.3 SW 11 15 6 8 1025.8 1025.8 0.2
21/04:30pm 19.9 18.0 8.9 49 5.7 SW 9 17 5 9 1025.6 1025.6 0.2
21/04:00pm 19.7 16.9 8.4 48 5.9 WSW 13 20 7 11 1025.5 1025.5 0.2
21/03:30pm 19.1 15.8 8.1 49 5.6 WSW 15 22 8 12 1025.7 1025.7 0.2
21/03:00pm 19.2 16.1 8.8 51 5.4 SW 15 20 8 11 1026.0 1026.0 0.2
21/02:30pm 18.9 15.8 8.8 52 5.2 SW 15 22 8 12 1026.5 1026.5 0.2
21/02:00pm 18.3 15.4 8.3 52 5.1 WSW 13 22 7 12 1026.9 1026.9 0.2
21/01:30pm 18.4 15.0 9.2 55 4.8 SW 17 22 9 12 1027.3 1027.3 0.2
21/01:00pm 18.8 16.7 9.6 55 4.9 WSW 11 19 6 10 1027.5 1027.5 0.2
21/12:30pm 17.4 15.9 8.5 56 4.5 WSW 6 11 3 6 1027.9 1027.9 0.2
21/12:00pm 17.0 15.7 9.9 63 3.7 SSW 7 11 4 6 1028.4 1028.4 0.2
21/11:30am 16.5 13.7 8.7 60 4.0 WSW 13 20 7 11 1028.9 1028.9 0.0
21/11:00am 16.2 13.6 7.9 58 4.2 WNW 11 19 6 10 1029.1 1029.1 0.0
21/10:30am 15.9 14.2 8.2 60 3.9 NNW 7 13 4 7 1029.2 1029.2 0.0
21/10:00am 15.5 13.9 8.0 61 3.8 NW 6 13 3 7 1029.2 1029.2 0.0
21/09:30am 14.0 12.4 8.6 70 2.7 NNW 7 11 4 6 1029.3 1029.3 0.0
21/09:00am 14.0 12.4 8.2 68 2.9 N 6 11 3 6 1029.4 1029.4 0.0
21/08:30am 13.2 10.8 8.7 74 2.2 NNE 11 13 6 7 1029.3 1029.3 0.0
21/08:00am 11.4 9.4 8.8 84 1.3 NNE 9 11 5 6 1028.9 1028.9 0.0
21/07:30am 9.3 8.0 7.6 89 0.8 NE 4 7 2 4 1028.6 1028.6 0.0
21/07:00am 8.4 6.4 7.0 91 0.7 NNE 7 11 4 6 1028.5 1028.5 0.0
21/06:30am 7.9 5.4 6.5 91 0.6 N 9 11 5 6 1028.1 1028.1 0.0
21/06:00am 7.9 6.0 6.7 92 0.5 NNW 6 7 3 4 1028.0 1028.0 0.0
21/05:30am 7.5 5.9 6.3 92 0.5 NNE 4 9 2 5 1027.6 1027.6 0.0
21/05:00am 7.3 4.7 6.1 92 0.5 NE 9 9 5 5 1027.3 1027.3 0.0
21/04:30am 6.5 4.1 5.3 92 0.5 NNE 7 7 4 4 1027.2 1027.2 0.0
21/04:00am 6.9 5.9 5.5 91 0.6 CALM 0 9 0 5 1026.9 1026.9 0.0
21/03:30am 7.0 5.9 5.3 89 0.7 CALM 0 0 0 0 1026.6 1026.6 0.0
21/03:00am 8.7 6.9 7.2 90 0.7 E 6 6 3 3 1026.4 1026.4 0.0
21/02:30am 8.5 6.6 6.6 88 0.9 ENE 6 7 3 4 1026.6 1026.6 0.0
21/02:00am 8.6 7.0 6.2 85 1.1 NE 4 6 2 3 1026.9 1026.9 0.0
21/01:30am 10.0 8.3 7.4 84 1.2 ENE 6 6 3 3 1027.1 1027.1 0.0
21/01:00am 10.3 8.6 7.5 83 1.3 NNE 6 7 3 4 1027.4 1027.4 0.0
21/12:30am 10.6 8.7 7.5 81 1.5 NNE 7 9 4 5 1027.4 1027.4 0.0
21/12:00am 12.4 11.9 7.7 73 2.3 CALM 0 0 0 0 1027.4 1027.4 0.0
 
Date/Time
CST
Temp
°C
App
Temp
°C
Dew
Point
°C
Rel
Hum
%
Delta-T
°C
Wind Press
QNH
hPa
Press
MSL
hPa
Rain since
9am
mm
Dir  Spd
km/h
Gust
km/h
Spd
kts
Gust
kts
20/11:30pm 13.3 12.8 7.7 69 2.7 CALM 0 0 0 0 1027.3 1027.3 0.0
20/11:00pm 13.4 12.1 7.6 68 2.8 WSW 4 7 2 4 1027.4 1027.4 0.0
20/10:30pm 13.3 12.9 8.2 71 2.5 CALM 0 7 0 4 1027.4 1027.4 0.0
20/10:00pm 13.2 11.5 8.5 73 2.3 SW 7 7 4 4 1027.5 1027.5 0.0
20/09:30pm 13.4 11.4 8.5 72 2.4 SW 9 11 5 6 1027.4 1027.4 0.0
20/09:00pm 13.4 11.4 8.7 73 2.3 SW 9 11 5 6 1027.3 1027.3 0.0
20/08:30pm 13.4 11.8 8.9 74 2.3 SW 7 11 4 6 1027.0 1027.0 0.0
20/08:00pm 13.6 11.3 8.9 73 2.4 SSW 11 15 6 8 1026.8 1026.8 0.0
20/07:30pm 13.6 11.1 8.4 71 2.6 SSW 11 15 6 8 1026.5 1026.5 0.0
20/07:00pm 13.8 11.4 8.8 72 2.5 SSW 11 13 6 7 1026.1 1026.1 0.0
20/06:30pm 13.8 10.2 8.4 70 2.7 SW 17 20 9 11 1025.8 1025.8 0.0
20/06:00pm 14.1 11.7 8.7 70 2.7 SW 11 17 6 9 1025.5 1025.5 0.0
20/05:30pm 14.7 11.9 8.6 67 3.1 SSW 13 17 7 9 1025.2 1025.2 0.0
20/05:00pm 14.8 12.1 9.0 68 3.0 SSW 13 17 7 9 1025.0 1025.0 0.0
20/04:30pm 14.9 11.9 9.1 68 2.9 SW 15 22 8 12 1024.8 1024.8 0.0
20/04:00pm 15.2 12.2 9.1 67 3.1 SW 15 20 8 11 1024.6 1024.6 0.0
20/03:30pm 15.1 11.6 8.8 66 3.2 SW 17 20 9 11 1024.7 1024.7 0.0
20/03:00pm 15.4 11.2 8.2 62 3.6 WSW 20 24 11 13 1024.6 1024.6 0.0
20/02:30pm 15.8 12.2 8.3 61 3.8 WSW 17 22 9 12 1024.6 1024.6 0.0
20/02:00pm 15.7 12.5 8.4 62 3.7 SSW 15 24 8 13 1024.7 1024.7 0.0
20/01:30pm 16.2 13.2 9.2 63 3.6 SW 15 20 8 11 1024.9 1024.9 0.0
20/01:00pm 15.2 11.4 7.7 61 3.7 WSW 17 22 9 12 1025.2 1025.2 0.0
20/12:30pm 16.0 12.0 9.2 64 3.5 WSW 20 26 11 14 1025.3 1025.3 0.0
20/12:00pm 16.0 11.8 7.5 57 4.2 WSW 19 28 10 15 1025.4 1025.4 0.0
20/11:30am 15.3 11.3 8.3 63 3.5 W 19 26 10 14 1025.5 1025.5 0.0
20/11:00am 14.6 11.3 8.1 65 3.2 WSW 15 24 8 13 1025.5 1025.5 0.0
20/10:30am 14.5 10.6 8.5 67 3.0 WSW 19 24 10 13 1025.4 1025.4 0.0
20/10:00am 14.4 11.0 9.2 71 2.7 W 17 24 9 13 1025.3 1025.3 0.0
20/09:30am 14.5 10.9 8.2 66 3.1 W 17 22 9 12 1024.9 1024.9 0.0
20/09:00am 14.4 11.1 9.6 73 2.5 W 17 20 9 11 1024.5 1024.5 6.2
20/08:30am 13.3 9.9 9.0 75 2.2 WNW 17 19 9 10 1024.1 1024.1 6.2
20/08:00am 12.5 10.9 10.2 86 1.2 NNW 9 11 5 6 1024.0 1024.0 6.2
20/07:30am 10.8 10.7 9.6 92 0.6 CALM 0 4 0 2 1024.0 1024.0 6.2
20/07:00am 9.8 9.1 8.7 93 0.5 NNW 2 6 1 3 1023.4 1023.4 6.2
20/06:30am 9.0 7.8 7.9 93 0.5 NNE 4 7 2 4 1022.9 1022.9 6.2
20/06:00am 9.1 7.9 7.9 92 0.6 N 4 7 2 4 1022.4 1022.4 6.2
20/05:30am 9.5 8.0 8.3 92 0.6 NNW 6 7 3 4 1022.0 1022.0 6.2
20/05:00am 9.5 8.4 8.3 92 0.6 N 4 6 2 3 1021.8 1021.8 6.2
20/04:30am 9.2 7.6 8.0 92 0.6 NW 6 7 3 4 1021.6 1021.6 6.2
20/04:00am 9.1 6.8 7.5 90 0.8 W 9 11 5 6 1021.4 1021.4 6.2
20/03:30am 10.0 8.4 8.6 91 0.7 W 7 11 4 6 1021.3 1021.3 6.2
20/03:00am 10.7 8.9 9.5 92 0.6 W 9 13 5 7 1021.3 1021.3 6.2
20/02:30am 10.4 9.1 9.3 93 0.5 N 6 9 3 5 1021.3 1021.3 6.2
20/02:04am 10.2 8.7 9.1 93 0.5 NE 7 9 4 5 1021.4 1021.4 6.2
20/02:00am 10.3 8.8 9.2 93 0.5 NE 7 9 4 5 1021.4 1021.4 6.2
20/01:44am 10.0 8.4 8.8 92 0.6 NE 7 7 4 4 1021.5 1021.5 6.2
20/01:30am 9.8 8.3 8.4 91 0.7 ENE 6 7 3 4 1021.6 1021.6 6.2
20/01:22am 10.0 8.5 8.6 91 0.7 E 6 6 3 3 1021.6 1021.6 6.2
20/01:00am 10.2 9.2 8.8 91 0.7 E 4 6 2 3 1021.6 1021.6 6.2
20/12:30am 10.5 9.2 9.1 91 0.7 E 6 7 3 4 1021.6 1021.6 6.2
20/12:00am 10.4 9.0 9.0 91 0.7 E 6 6 3 3 1021.6 1021.6 6.0
 
Date/Time
CST
Temp
°C
App
Temp
°C
Dew
Point
°C
Rel
Hum
%
Delta-T
°C
Wind Press
QNH
hPa
Press
MSL
hPa
Rain since
9am
mm
Dir  Spd
km/h
Gust
km/h
Spd
kts
Gust
kts
19/11:51pm 10.4 9.0 9.0 91 0.7 E 6 7 3 4 1021.6 1021.6 6.0
19/11:30pm 10.3 8.9 8.7 90 0.8 SE 6 9 3 5 1021.5 1021.5 6.0
19/11:24pm 10.4 8.8 8.8 90 0.8 SSE 7 9 4 5 1021.5 1021.5 6.0
19/11:00pm 11.1 8.5 9.4 89 0.9 SSW 13 19 7 10 1021.5 1021.5 6.0
19/10:30pm 11.4 6.3 9.3 87 1.0 WSW 26 39 14 21 1021.4 1021.4 6.0
19/10:00pm 11.3 7.6 9.4 88 1.0 WNW 19 32 10 17 1021.4 1021.4 6.0
19/09:30pm 10.9 9.0 9.2 89 0.8 W 9 11 5 6 1021.4 1021.4 5.8
19/09:05pm 10.7 8.0 8.8 88 0.9 WSW 13 17 7 9 1021.4 1021.4 5.8
19/09:00pm 10.7 7.6 8.8 88 0.9 WSW 15 20 8 11 1021.4 1021.4 5.8
19/08:49pm 10.8 7.6 8.4 85 1.2 WSW 15 28 8 15 1021.4 1021.4 5.8
19/08:30pm 10.9 9.0 9.0 88 0.9 SW 9 13 5 7 1021.4 1021.4 5.8
19/08:00pm 10.9 7.4 8.7 86 1.1 WSW 17 20 9 11 1021.1 1021.1 5.8
19/07:30pm 10.9 8.3 9.3 90 0.8 WSW 13 17 7 9 1020.9 1020.9 5.4
19/07:00pm 10.5 7.3 8.4 87 1.0 SW 15 19 8 10 1020.5 1020.5 5.2
19/06:54pm 10.4 7.2 8.3 87 1.0 WSW 15 19 8 10 1020.5 1020.5 5.2
19/06:30pm 10.4 7.5 8.3 87 1.0 WSW 13 19 7 10 1020.6 1020.6 4.0
19/06:00pm 10.5 7.6 8.1 85 1.2 SW 13 15 7 8 1020.3 1020.3 2.6
19/05:30pm 10.6 6.4 8.4 86 1.1 W 20 26 11 14 1020.1 1020.1 1.6
19/05:11pm 11.4 7.8 8.3 81 1.5 W 17 20 9 11 1019.7 1019.7 0.8
19/05:00pm 11.2 7.3 7.3 77 1.9 W 17 24 9 13 1019.4 1019.4 0.8
19/04:59pm 11.2 7.3 7.3 77 1.9 W 17 24 9 13 1019.4 1019.4 0.8

Other Formats:

Comma delimited format used in spreadsheet applications
http://www.bom.gov.au/fwo/IDS60801/IDS60801.95676.axf

JavaScript Object Notation format (JSON) in row-major order
http://www.bom.gov.au/fwo/IDS60801/IDS60801.95676.json